Time;durP1;ratioP1;P1;durP2;ratioP2;P2;SDS_P1;SDS_P2;PMS_P1;PMS_P2;Temp;Humidity;BMP_temperature;BMP_pressure;BME280_temperature;BME280_humidity;BME280_pressure;Samples;Min_cycle;Max_cycle;Signal;HPM_P1;HPM_P2
2023/11/09 00:02:14;;;;;;;;;;;12.60;99.90;;;;;;5035763;28;19910;-72
2023/11/09 00:04:40;;;;;;;;;;;12.70;99.90;;;;;;5035841;28;19909;-81
2023/11/09 00:07:07;;;;;;;;;;;12.70;99.90;;;;;;5034443;28;20304;-81
2023/11/09 00:09:33;;;;;;;;;;;12.70;99.90;;;;;;5035524;28;19909;-72
2023/11/09 00:11:59;;;;;;;;;;;12.70;99.90;;;;;;5027520;28;19920;-72
2023/11/09 00:14:25;;;;;;;;;;;12.70;99.90;;;;;;5015791;28;20316;-81
2023/11/09 00:16:50;;;;;;;;;;;12.70;99.90;;;;;;5015931;28;19914;-71
2023/11/09 00:19:16;;;;;;;;;;;12.70;99.90;;;;;;5015947;28;20342;-72
2023/11/09 00:21:42;;;;;;;;;;;12.70;99.90;;;;;;5015534;28;20300;-72
2023/11/09 00:24:10;;;;;;;;;;;12.70;99.90;;;;;;5015635;28;19945;-72
2023/11/09 00:26:41;;;;;;;;;;;12.70;99.90;;;;;;5015526;28;19916;-73
2023/11/09 00:29:07;;;;;;;;;;;12.70;99.90;;;;;;5035432;28;19999;-81
2023/11/09 00:31:33;;;;;;;;;;;12.70;99.90;;;;;;5035110;28;19988;-80
2023/11/09 00:33:58;;;;;;;;;;;12.80;99.90;;;;;;5035118;28;19979;-71
2023/11/09 00:36:24;;;;;;;;;;;12.80;99.90;;;;;;5035419;28;19909;-81
2023/11/09 00:38:50;;;;;;;;;;;12.80;99.90;;;;;;5034900;28;19909;-72
2023/11/09 00:41:15;;;;;;;;;;;12.90;99.90;;;;;;5035495;28;19940;-81
2023/11/09 00:43:41;;;;;;;;;;;12.80;99.90;;;;;;5035019;28;19936;-81
2023/11/09 00:46:06;;;;;;;;;;;12.80;99.90;;;;;;5034978;28;19995;-71
2023/11/09 00:48:32;;;;;;;;;;;12.70;99.90;;;;;;5035223;28;19975;-71
2023/11/09 00:50:58;;;;;;;;;;;12.70;99.90;;;;;;5034873;28;19999;-71
2023/11/09 00:53:23;;;;;;;;;;;12.70;99.90;;;;;;5050068;28;19913;-81
2023/11/09 00:55:48;;;;;;;;;;;12.70;99.90;;;;;;5034673;28;19953;-72
2023/11/09 00:58:15;;;;;;;;;;;12.70;99.90;;;;;;5033837;28;19909;-71
2023/11/09 01:00:41;;;;;;;;;;;12.70;99.90;;;;;;5034810;28;19944;-81
2023/11/09 01:03:06;;;;;;;;;;;12.80;99.90;;;;;;5034904;28;20264;-72
2023/11/09 01:05:32;;;;;;;;;;;12.80;99.90;;;;;;5034939;28;19920;-71
2023/11/09 01:07:57;;;;;;;;;;;12.80;99.90;;;;;;5034355;28;20379;-81
2023/11/09 01:10:22;;;;;;;;;;;12.80;99.90;;;;;;5034483;28;19916;-81
2023/11/09 01:12:48;;;;;;;;;;;12.80;99.90;;;;;;5019759;28;19932;-81
2023/11/09 01:15:14;;;;;;;;;;;12.80;99.90;;;;;;5014828;28;19916;-71
2023/11/09 01:17:39;;;;;;;;;;;12.70;99.90;;;;;;5014818;28;19913;-71
2023/11/09 01:20:05;;;;;;;;;;;12.70;99.90;;;;;;5014854;28;19984;-72
2023/11/09 01:22:31;;;;;;;;;;;12.60;99.90;;;;;;5014560;28;20543;-81
2023/11/09 01:24:57;;;;;;;;;;;12.60;99.90;;;;;;5014890;28;19968;-71
2023/11/09 01:27:22;;;;;;;;;;;12.60;99.90;;;;;;5020539;28;19913;-71
2023/11/09 01:29:48;;;;;;;;;;;12.50;99.90;;;;;;5033874;28;20414;-71
2023/11/09 01:32:13;;;;;;;;;;;12.60;99.90;;;;;;5034237;28;19936;-71
2023/11/09 01:34:39;;;;;;;;;;;12.60;99.90;;;;;;5034007;28;19920;-71
2023/11/09 01:37:10;;;;;;;;;;;12.50;99.90;;;;;;5033979;28;19909;-75
2023/11/09 01:39:38;;;;;;;;;;;12.50;99.90;;;;;;5034262;28;19916;-72
2023/11/09 01:42:04;;;;;;;;;;;12.50;99.90;;;;;;5034165;28;20291;-72
2023/11/09 01:44:30;;;;;;;;;;;12.50;99.90;;;;;;5034224;28;19956;-71
2023/11/09 01:46:55;;;;;;;;;;;12.40;99.90;;;;;;5033770;28;19924;-81
2023/11/09 01:49:21;;;;;;;;;;;12.40;99.90;;;;;;5034275;28;19935;-81
2023/11/09 01:51:48;;;;;;;;;;;12.30;99.90;;;;;;5033773;28;20284;-71
2023/11/09 01:54:16;;;;;;;;;;;12.30;99.90;;;;;;5033852;28;19988;-71
2023/11/09 01:56:42;;;;;;;;;;;12.30;99.90;;;;;;5032419;28;19913;-71
2023/11/09 01:59:08;;;;;;;;;;;12.30;99.90;;;;;;5033639;28;19916;-81
2023/11/09 02:01:36;;;;;;;;;;;12.30;99.90;;;;;;5021669;28;20004;-71
2023/11/09 02:04:02;;;;;;;;;;;12.30;99.90;;;;;;5014169;28;19983;-71
2023/11/09 02:06:28;;;;;;;;;;;12.30;99.90;;;;;;5013611;28;19968;-71
2023/11/09 02:08:53;;;;;;;;;;;12.30;99.90;;;;;;5027983;28;19920;-71
2023/11/09 02:11:19;;;;;;;;;;;12.20;99.90;;;;;;5033260;28;19914;-81
2023/11/09 02:13:45;;;;;;;;;;;12.20;99.90;;;;;;5033278;28;19917;-80
2023/11/09 02:16:11;;;;;;;;;;;12.20;99.90;;;;;;5033644;28;19955;-71
2023/11/09 02:18:36;;;;;;;;;;;12.20;99.90;;;;;;5033900;28;19909;-72
2023/11/09 02:21:02;;;;;;;;;;;12.20;99.90;;;;;;5033578;28;19917;-71
2023/11/09 02:23:31;;;;;;;;;;;12.20;99.90;;;;;;5021623;28;19909;-81
2023/11/09 02:25:57;;;;;;;;;;;12.20;99.90;;;;;;5013541;28;19920;-81
2023/11/09 02:28:22;;;;;;;;;;;12.20;99.90;;;;;;5027503;28;19913;-81
2023/11/09 02:30:48;;;;;;;;;;;12.20;99.90;;;;;;5032617;28;19928;-71
2023/11/09 02:33:13;;;;;;;;;;;12.10;99.90;;;;;;5033459;28;20292;-81
2023/11/09 02:35:40;;;;;;;;;;;12.10;99.90;;;;;;5033084;28;19948;-71
2023/11/09 02:38:06;;;;;;;;;;;12.10;99.90;;;;;;5032818;28;19909;-81
2023/11/09 02:40:32;;;;;;;;;;;12.10;99.90;;;;;;5033139;28;19920;-71
2023/11/09 02:42:57;;;;;;;;;;;12.00;99.90;;;;;;5033079;28;19916;-82
2023/11/09 02:45:22;;;;;;;;;;;12.00;99.90;;;;;;5033294;28;19917;-72
2023/11/09 02:47:48;;;;;;;;;;;12.00;99.90;;;;;;5033144;28;19909;-71
2023/11/09 02:50:14;;;;;;;;;;;12.00;99.90;;;;;;5032841;28;20445;-81
2023/11/09 02:52:40;;;;;;;;;;;12.00;99.90;;;;;;5032755;28;19913;-80
2023/11/09 02:55:06;;;;;;;;;;;12.00;99.90;;;;;;5048417;28;20386;-80
2023/11/09 02:57:31;;;;;;;;;;;12.00;99.90;;;;;;5032947;28;19963;-81
2023/11/09 02:59:57;;;;;;;;;;;12.00;99.90;;;;;;5032848;28;19913;-73
2023/11/09 03:02:22;;;;;;;;;;;12.00;99.90;;;;;;5032384;28;19920;-72
2023/11/09 03:04:48;;;;;;;;;;;11.90;99.90;;;;;;5032749;28;19909;-81
2023/11/09 03:07:14;;;;;;;;;;;11.80;99.90;;;;;;5033025;28;19975;-81
2023/11/09 03:09:40;;;;;;;;;;;11.80;99.90;;;;;;5032626;28;19909;-72
2023/11/09 03:12:06;;;;;;;;;;;11.80;99.90;;;;;;5023879;28;19914;-72
2023/11/09 03:14:33;;;;;;;;;;;11.80;99.90;;;;;;5012990;28;19914;-81
2023/11/09 03:17:06;;;;;;;;;;;11.80;99.90;;;;;;5013307;28;19917;-81
2023/11/09 03:19:31;;;;;;;;;;;11.70;99.90;;;;;;5013503;28;20012;-72
2023/11/09 03:21:57;;;;;;;;;;;11.70;99.90;;;;;;5016662;28;20015;-81
2023/11/09 03:24:22;;;;;;;;;;;11.70;99.90;;;;;;5016609;28;19909;-72
2023/11/09 03:26:48;;;;;;;;;;;11.70;99.90;;;;;;5018330;28;20345;-72
2023/11/09 03:29:14;;;;;;;;;;;11.70;99.90;;;;;;5036363;28;20008;-81
2023/11/09 03:31:39;;;;;;;;;;;11.60;99.90;;;;;;5036105;28;19925;-80
2023/11/09 03:34:05;;;;;;;;;;;11.60;99.90;;;;;;5035580;28;19917;-81
2023/11/09 03:36:30;;;;;;;;;;;11.50;99.90;;;;;;5035007;28;19909;-72
2023/11/09 03:38:56;;;;;;;;;;;11.40;99.90;;;;;;5036159;28;20008;-72
2023/11/09 03:41:23;;;;;;;;;;;11.40;99.90;;;;;;5036204;28;19913;-72
2023/11/09 03:43:49;;;;;;;;;;;11.40;99.90;;;;;;5036050;28;19909;-72
2023/11/09 03:46:14;;;;;;;;;;;11.40;99.90;;;;;;5036213;28;19915;-81
2023/11/09 03:48:40;;;;;;;;;;;11.50;99.90;;;;;;5036211;28;19932;-73
2023/11/09 03:51:05;;;;;;;;;;;11.40;99.90;;;;;;5036230;28;20278;-72
2023/11/09 03:53:31;;;;;;;;;;;11.50;99.90;;;;;;5035426;28;20331;-72
2023/11/09 03:55:56;;;;;;;;;;;11.40;99.90;;;;;;5036292;28;19920;-81
2023/11/09 03:58:22;;;;;;;;;;;11.50;99.90;;;;;;5035312;28;19916;-81
2023/11/09 04:00:47;;;;;;;;;;;11.50;99.90;;;;;;5030662;28;19913;-72
2023/11/09 04:03:14;;;;;;;;;;;11.50;99.90;;;;;;5016015;28;20003;-71
2023/11/09 04:05:40;;;;;;;;;;;11.60;99.90;;;;;;5015980;28;19992;-71
2023/11/09 04:08:05;;;;;;;;;;;11.60;99.90;;;;;;5016035;28;19914;-71
2023/11/09 04:10:31;;;;;;;;;;;11.70;99.90;;;;;;5016060;28;20296;-81
2023/11/09 04:12:56;;;;;;;;;;;11.70;99.90;;;;;;5032959;28;19910;-82
2023/11/09 04:15:22;;;;;;;;;;;11.70;99.90;;;;;;5035666;28;20279;-72
2023/11/09 04:17:47;;;;;;;;;;;11.70;99.90;;;;;;5035753;28;20360;-72
2023/11/09 04:20:13;;;;;;;;;;;11.70;99.90;;;;;;5035517;28;19914;-81
2023/11/09 04:22:38;;;;;;;;;;;11.70;99.90;;;;;;5035346;28;20372;-81
2023/11/09 04:25:04;;;;;;;;;;;11.70;99.90;;;;;;5035372;28;19917;-82
2023/11/09 04:27:30;;;;;;;;;;;11.70;99.90;;;;;;5035201;28;19909;-73
2023/11/09 04:29:56;;;;;;;;;;;11.70;99.90;;;;;;5035116;28;19913;-72
2023/11/09 04:32:21;;;;;;;;;;;11.70;99.90;;;;;;5034768;28;19913;-81
2023/11/09 04:34:47;;;;;;;;;;;11.60;99.90;;;;;;5035166;28;19910;-81
2023/11/09 04:37:12;;;;;;;;;;;11.60;99.90;;;;;;5035155;28;20007;-82
2023/11/09 04:39:43;;;;;;;;;;;11.70;99.90;;;;;;5034939;28;19909;-73
2023/11/09 04:42:09;;;;;;;;;;;11.70;99.90;;;;;;5035308;28;19909;-73
2023/11/09 04:44:37;;;;;;;;;;;11.60;99.90;;;;;;5035122;28;19915;-72
2023/11/09 04:47:08;;;;;;;;;;;11.70;99.90;;;;;;5035215;28;19913;-72
2023/11/09 04:49:44;;;;;;;;;;;11.60;99.90;;;;;;5034884;28;19917;-81
2023/11/09 04:52:10;;;;;;;;;;;11.60;99.90;;;;;;5034728;28;19980;-73
2023/11/09 04:54:45;;;;;;;;;;;11.60;99.90;;;;;;5034901;28;19909;-73
2023/11/09 05:07:49;;;;;;;;;;;11.70;99.90;;;;;;5034449;28;19915;-73
2023/11/09 05:10:15;;;;;;;;;;;11.70;99.90;;;;;;5034358;28;19909;-72
2023/11/09 05:12:40;;;;;;;;;;;11.70;99.90;;;;;;5020673;28;19923;-72
2023/11/09 05:15:06;;;;;;;;;;;11.70;99.90;;;;;;5010982;28;19917;-81
2023/11/09 05:17:32;;;;;;;;;;;11.70;99.90;;;;;;5010669;28;19967;-81
2023/11/09 05:19:57;;;;;;;;;;;11.70;99.90;;;;;;5009114;28;20442;-72
2023/11/09 05:22:23;;;;;;;;;;;11.80;99.90;;;;;;5009973;28;19921;-81
2023/11/09 05:24:48;;;;;;;;;;;11.70;99.90;;;;;;5010311;28;20336;-72
2023/11/09 05:27:14;;;;;;;;;;;11.80;99.90;;;;;;5015225;28;20012;-81
2023/11/09 05:29:40;;;;;;;;;;;11.70;99.90;;;;;;5030041;28;20004;-81
2023/11/09 05:32:08;;;;;;;;;;;11.80;99.90;;;;;;5029630;28;19928;-81
2023/11/09 05:34:34;;;;;;;;;;;11.70;99.90;;;;;;5029750;28;19999;-72
2023/11/09 05:36:59;;;;;;;;;;;11.70;99.90;;;;;;5029736;28;20020;-72
2023/11/09 05:39:27;;;;;;;;;;;11.60;99.90;;;;;;5029659;28;20368;-81
2023/11/09 05:41:52;;;;;;;;;;;11.60;99.90;;;;;;5028346;28;19996;-81
2023/11/09 05:44:18;;;;;;;;;;;11.50;99.90;;;;;;5029931;28;20000;-72
2023/11/09 05:46:43;;;;;;;;;;;11.40;99.90;;;;;;5029498;28;19913;-72
2023/11/09 05:49:10;;;;;;;;;;;11.40;99.90;;;;;;5028704;28;20302;-81
2023/11/09 05:51:39;;;;;;;;;;;11.40;99.90;;;;;;5029740;28;19917;-72
2023/11/09 05:54:05;;;;;;;;;;;11.30;99.90;;;;;;5029244;28;19913;-80
2023/11/09 05:56:30;;;;;;;;;;;11.20;99.90;;;;;;5029797;28;19919;-72
2023/11/09 05:58:56;;;;;;;;;;;11.10;99.90;;;;;;5029380;28;19913;-72
2023/11/09 06:01:22;;;;;;;;;;;11.10;99.90;;;;;;5029314;28;20291;-72
2023/11/09 06:03:48;;;;;;;;;;;11.00;99.90;;;;;;5029149;28;19913;-73
2023/11/09 06:06:14;;;;;;;;;;;10.90;99.90;;;;;;5029186;28;19921;-81
2023/11/09 06:08:39;;;;;;;;;;;10.90;99.90;;;;;;5029158;28;19913;-81
2023/11/09 06:11:05;;;;;;;;;;;11.00;99.90;;;;;;5028504;28;19956;-72
2023/11/09 06:13:33;;;;;;;;;;;11.10;99.90;;;;;;5008614;28;20475;-81
2023/11/09 06:15:58;;;;;;;;;;;11.20;99.90;;;;;;5009698;28;19914;-82
2023/11/09 06:18:24;;;;;;;;;;;11.30;99.90;;;;;;5009606;28;19918;-82
2023/11/09 06:20:52;;;;;;;;;;;11.40;99.90;;;;;;5011911;28;19937;-81
2023/11/09 06:23:18;;;;;;;;;;;11.50;99.90;;;;;;5013667;28;19909;-72
2023/11/09 06:25:44;;;;;;;;;;;11.60;99.90;;;;;;5013374;28;19909;-73
2023/11/09 06:28:10;;;;;;;;;;;11.60;99.90;;;;;;5026304;28;20287;-72
2023/11/09 06:30:37;;;;;;;;;;;11.60;99.90;;;;;;5032988;28;19959;-73
2023/11/09 06:33:03;;;;;;;;;;;11.60;99.90;;;;;;5033077;28;20315;-73
2023/11/09 06:35:28;;;;;;;;;;;11.60;99.90;;;;;;5024119;28;19975;-81
2023/11/09 06:37:54;;;;;;;;;;;11.60;99.90;;;;;;5016730;28;20380;-73
2023/11/09 06:40:19;;;;;;;;;;;11.60;99.90;;;;;;5032605;28;19959;-73
2023/11/09 06:42:49;;;;;;;;;;;11.60;99.90;;;;;;5033261;28;19909;-73
2023/11/09 06:45:15;;;;;;;;;;;11.60;99.90;;;;;;5032794;28;19913;-82
2023/11/09 06:47:41;;;;;;;;;;;11.50;99.90;;;;;;5032934;28;19909;-82
2023/11/09 06:50:16;;;;;;;;;;;11.50;99.90;;;;;;5032639;28;19917;-73
2023/11/09 06:52:42;;;;;;;;;;;11.50;99.90;;;;;;5032902;28;20012;-82
2023/11/09 06:55:09;;;;;;;;;;;11.50;99.90;;;;;;5033453;28;20010;-73
2023/11/09 06:57:36;;;;;;;;;;;11.50;99.90;;;;;;5036406;28;19909;-81
2023/11/09 07:00:06;;;;;;;;;;;11.60;99.90;;;;;;5036823;28;20000;-82
2023/11/09 07:02:31;;;;;;;;;;;11.60;99.90;;;;;;5017412;28;19916;-73
2023/11/09 07:04:57;;;;;;;;;;;11.70;99.90;;;;;;5026862;28;19913;-82
2023/11/09 07:07:22;;;;;;;;;;;11.70;99.90;;;;;;5036308;28;19916;-72
2023/11/09 07:09:48;;;;;;;;;;;11.80;99.90;;;;;;5031231;28;19913;-82
2023/11/09 07:12:13;;;;;;;;;;;11.90;99.90;;;;;;5026958;28;19914;-83
2023/11/09 07:14:40;;;;;;;;;;;11.90;99.90;;;;;;5021774;28;19913;-82
2023/11/09 07:17:06;;;;;;;;;;;12.00;99.90;;;;;;5034889;28;20287;-73
2023/11/09 07:19:33;;;;;;;;;;;12.20;99.90;;;;;;5034982;28;20400;-73
2023/11/09 07:22:00;;;;;;;;;;;12.30;99.90;;;;;;5016086;28;19909;-73
2023/11/09 07:24:26;;;;;;;;;;;12.50;99.90;;;;;;5016566;28;19913;-82
2023/11/09 07:26:53;;;;;;;;;;;12.70;99.90;;;;;;5018168;28;20269;-73
2023/11/09 07:29:19;;;;;;;;;;;12.80;99.90;;;;;;5031139;28;19917;-73
2023/11/09 07:31:45;;;;;;;;;;;12.80;99.90;;;;;;5033454;28;19925;-73
2023/11/09 07:34:10;;;;;;;;;;;12.90;99.90;;;;;;5028335;28;20296;-73
2023/11/09 07:36:36;;;;;;;;;;;12.90;99.90;;;;;;5030837;28;20349;-82
2023/11/09 07:39:03;;;;;;;;;;;13.00;99.90;;;;;;5029564;28;19921;-82
2023/11/09 07:41:29;;;;;;;;;;;13.00;99.90;;;;;;5015582;28;19948;-72
2023/11/09 07:43:55;;;;;;;;;;;13.00;99.90;;;;;;5016262;28;20012;-81
2023/11/09 07:46:20;;;;;;;;;;;13.00;99.90;;;;;;5015935;28;19997;-72
2023/11/09 07:48:46;;;;;;;;;;;13.00;99.90;;;;;;5015748;28;19964;-72
2023/11/09 07:51:13;;;;;;;;;;;12.90;99.90;;;;;;5033342;28;19967;-82
2023/11/09 07:53:39;;;;;;;;;;;12.80;99.90;;;;;;5033581;28;20414;-82
2023/11/09 07:56:04;;;;;;;;;;;12.80;99.90;;;;;;5029246;28;19913;-76
2023/11/09 07:58:30;;;;;;;;;;;12.80;99.90;;;;;;5033027;28;19916;-73
2023/11/09 08:00:58;;;;;;;;;;;12.80;99.90;;;;;;5028913;28;19924;-72
2023/11/09 08:03:24;;;;;;;;;;;12.80;99.90;;;;;;5018628;28;19913;-82
2023/11/09 08:05:49;;;;;;;;;;;12.80;99.90;;;;;;5015024;28;19921;-82
2023/11/09 08:08:16;;;;;;;;;;;12.90;99.90;;;;;;5014014;28;19910;-82
2023/11/09 08:10:42;;;;;;;;;;;12.90;99.90;;;;;;5014551;28;20285;-82
2023/11/09 08:13:11;;;;;;;;;;;13.00;99.90;;;;;;5016309;28;19914;-82
2023/11/09 08:15:37;;;;;;;;;;;13.10;99.90;;;;;;5032488;28;19940;-81
2023/11/09 08:18:03;;;;;;;;;;;13.10;99.90;;;;;;5017086;28;20372;-83
2023/11/09 08:20:29;;;;;;;;;;;13.10;99.90;;;;;;5014706;28;20458;-73
2023/11/09 08:22:56;;;;;;;;;;;13.10;99.90;;;;;;5028830;28;19920;-73
2023/11/09 08:25:22;;;;;;;;;;;13.00;99.90;;;;;;5020421;28;19979;-72
2023/11/09 08:27:51;;;;;;;;;;;12.90;99.90;;;;;;5022665;28;19962;-81
2023/11/09 08:30:19;;;;;;;;;;;12.90;99.90;;;;;;5020535;28;19945;-81
2023/11/09 08:32:47;;;;;;;;;;;12.70;99.90;;;;;;5013953;28;19922;-82
2023/11/09 08:35:13;;;;;;;;;;;12.60;99.90;;;;;;5027806;28;20082;-73
2023/11/09 08:37:39;;;;;;;;;;;12.50;99.90;;;;;;5033618;28;19952;-81
2023/11/09 08:40:17;;;;;;;;;;;12.40;99.90;;;;;;5022678;28;19959;-72
2023/11/09 08:42:44;;;;;;;;;;;12.30;99.90;;;;;;5013833;28;19924;-73
2023/11/09 08:45:10;;;;;;;;;;;12.30;99.90;;;;;;5014259;28;20392;-82
2023/11/09 08:47:35;;;;;;;;;;;12.30;99.90;;;;;;5013892;28;19922;-72
2023/11/09 08:50:01;;;;;;;;;;;12.60;99.90;;;;;;5023209;28;20376;-82
2023/11/09 08:52:27;;;;;;;;;;;12.80;99.90;;;;;;5033108;28;19924;-82
2023/11/09 08:54:56;;;;;;;;;;;13.00;99.90;;;;;;5024322;28;19957;-82
2023/11/09 08:57:21;;;;;;;;;;;13.10;99.90;;;;;;5028496;28;20023;-82
2023/11/09 08:59:47;;;;;;;;;;;13.20;99.90;;;;;;5032812;28;20344;-73
2023/11/09 09:02:13;;;;;;;;;;;13.30;99.90;;;;;;5032345;28;20383;-83
2023/11/09 09:04:38;;;;;;;;;;;13.30;99.90;;;;;;5027239;28;20376;-73
2023/11/09 09:07:04;;;;;;;;;;;13.50;99.90;;;;;;5024983;28;19956;-82
2023/11/09 09:09:29;;;;;;;;;;;13.60;99.90;;;;;;5022093;28;19913;-82
2023/11/09 09:11:55;;;;;;;;;;;13.80;99.90;;;;;;5020663;28;20501;-83
2023/11/09 09:14:21;;;;;;;;;;;13.80;99.90;;;;;;5031419;28;19921;-73
2023/11/09 09:16:46;;;;;;;;;;;13.90;99.90;;;;;;5033094;28;19939;-84
2023/11/09 09:19:12;;;;;;;;;;;14.00;99.90;;;;;;5026244;28;19921;-72
2023/11/09 09:21:38;;;;;;;;;;;14.00;99.90;;;;;;5030790;28;20066;-84
2023/11/09 09:24:04;;;;;;;;;;;14.10;99.90;;;;;;5032140;28;19913;-83
2023/11/09 09:26:33;;;;;;;;;;;14.10;99.90;;;;;;5016060;28;20425;-72
2023/11/09 09:28:59;;;;;;;;;;;14.30;99.90;;;;;;5033130;28;19913;-72
2023/11/09 09:31:24;;;;;;;;;;;14.30;99.90;;;;;;5013947;28;19931;-73
2023/11/09 09:33:55;;;;;;;;;;;14.50;99.90;;;;;;5013413;28;20284;-85
2023/11/09 09:36:21;;;;;;;;;;;14.70;99.90;;;;;;5023978;28;19967;-84
2023/11/09 09:38:47;;;;;;;;;;;14.60;99.90;;;;;;5031452;28;20455;-73
2023/11/09 09:41:15;;;;;;;;;;;14.50;99.90;;;;;;5030371;28;20007;-72
2023/11/09 09:43:42;;;;;;;;;;;14.40;99.90;;;;;;5032830;28;19917;-72
2023/11/09 09:46:12;;;;;;;;;;;14.50;99.90;;;;;;5017282;28;19945;-72
2023/11/09 09:48:37;;;;;;;;;;;14.70;99.90;;;;;;5013410;28;19918;-84
2023/11/09 09:51:05;;;;;;;;;;;14.70;99.90;;;;;;5013466;28;19939;-84
2023/11/09 09:53:32;;;;;;;;;;;14.80;99.90;;;;;;5013227;28;19920;-72
2023/11/09 09:55:58;;;;;;;;;;;14.90;99.90;;;;;;5012749;28;19917;-72
2023/11/09 09:58:23;;;;;;;;;;;15.00;99.90;;;;;;5022602;28;19913;-83
2023/11/09 10:00:52;;;;;;;;;;;15.10;99.90;;;;;;5031669;28;19913;-82
2023/11/09 10:03:19;;;;;;;;;;;15.20;99.90;;;;;;5032610;28;20008;-73
2023/11/09 10:05:46;;;;;;;;;;;15.10;99.90;;;;;;5032628;28;19910;-72
2023/11/09 10:08:15;;;;;;;;;;;15.10;99.90;;;;;;5032123;28;19917;-73
2023/11/09 10:10:44;;;;;;;;;;;15.40;99.90;;;;;;5012831;28;19918;-84
2023/11/09 10:13:10;;;;;;;;;;;15.50;99.90;;;;;;5030020;28;19921;-83
2023/11/09 10:15:36;;;;;;;;;;;15.50;99.90;;;;;;5032454;28;20264;-82
2023/11/09 10:18:02;;;;;;;;;;;15.60;99.90;;;;;;5032707;28;19917;-73
2023/11/09 10:20:28;;;;;;;;;;;15.40;99.90;;;;;;5032641;28;20442;-74
2023/11/09 10:22:55;;;;;;;;;;;15.10;99.90;;;;;;5024038;28;20048;-83
2023/11/09 10:25:27;;;;;;;;;;;14.50;99.90;;;;;;5012775;28;20380;-84
2023/11/09 10:28:07;;;;;;;;;;;14.00;99.90;;;;;;5022682;28;19913;-85
2023/11/09 10:30:51;;;;;;;;;;;14.10;99.90;;;;;;5025196;28;19924;-73
2023/11/09 10:33:17;;;;;;;;;;;14.20;99.90;;;;;;5012665;28;19909;-74
2023/11/09 10:35:44;;;;;;;;;;;14.10;99.90;;;;;;5012459;28;20012;-73
2023/11/09 10:38:12;;;;;;;;;;;13.90;99.90;;;;;;5012399;28;19910;-73
2023/11/09 10:40:41;;;;;;;;;;;13.70;99.90;;;;;;5017635;28;20288;-85
2023/11/09 10:43:14;;;;;;;;;;;13.60;99.90;;;;;;5032090;28;19920;-85
2023/11/09 10:45:43;;;;;;;;;;;13.60;99.90;;;;;;5032135;28;19914;-81
2023/11/09 10:48:10;;;;;;;;;;;13.70;99.90;;;;;;5027531;28;20403;-82
2023/11/09 10:50:44;;;;;;;;;;;13.80;99.90;;;;;;5012361;28;19975;-73
2023/11/09 10:53:12;;;;;;;;;;;13.90;99.90;;;;;;5013217;28;19920;-82
2023/11/09 10:55:38;;;;;;;;;;;13.90;99.90;;;;;;5017154;28;20012;-84
2023/11/09 10:58:05;;;;;;;;;;;13.90;99.90;;;;;;5011664;28;19988;-72
2023/11/09 11:00:42;;;;;;;;;;;14.00;99.90;;;;;;5015634;28;20358;-83
2023/11/09 11:03:13;;;;;;;;;;;14.00;99.90;;;;;;5031581;28;20004;-72
2023/11/09 11:05:40;;;;;;;;;;;14.10;99.90;;;;;;5015963;28;19967;-84
2023/11/09 11:08:07;;;;;;;;;;;14.40;99.90;;;;;;5012454;28;19913;-84
2023/11/09 11:10:34;;;;;;;;;;;14.50;99.90;;;;;;5027755;28;19969;-82
2023/11/09 11:13:03;;;;;;;;;;;14.80;99.90;;;;;;5024022;28;20330;-73
2023/11/09 11:15:39;;;;;;;;;;;15.00;99.90;;;;;;5032017;28;19956;-73
2023/11/09 11:18:34;;;;;;;;;;;14.80;99.90;;;;;;5024892;28;20024;-89
2023/11/09 11:21:20;;;;;;;;;;;14.60;99.90;;;;;;5016472;28;19975;-88
2023/11/09 11:24:12;;;;;;;;;;;14.20;99.90;;;;;;5028588;28;19917;-86
2023/11/09 11:26:57;;;;;;;;;;;13.80;99.90;;;;;;5024789;28;19968;-75
2023/11/09 11:29:23;;;;;;;;;;;13.70;99.90;;;;;;5022708;28;19920;-74
2023/11/09 11:31:52;;;;;;;;;;;13.80;99.90;;;;;;5011182;28;19925;-88
2023/11/09 11:34:37;;;;;;;;;;;14.10;99.90;;;;;;5017237;28;19917;-74
2023/11/09 11:37:05;;;;;;;;;;;14.20;99.90;;;;;;5024714;28;19913;-73
2023/11/09 11:39:36;;;;;;;;;;;14.40;99.90;;;;;;5025900;28;19913;-87
2023/11/09 11:42:34;;;;;;;;;;;14.50;99.90;;;;;;5024225;28;19909;-73
2023/11/09 11:45:00;;;;;;;;;;;14.70;99.90;;;;;;5015717;28;19960;-85
2023/11/09 11:47:29;;;;;;;;;;;14.80;99.90;;;;;;5019874;28;19956;-88
2023/11/09 11:49:57;;;;;;;;;;;14.80;99.90;;;;;;5029940;28;19909;-74
2023/11/09 11:52:23;;;;;;;;;;;14.80;99.90;;;;;;5025667;28;20066;-88
2023/11/09 11:54:52;;;;;;;;;;;14.60;99.90;;;;;;5031136;28;19996;-73
2023/11/09 11:57:20;;;;;;;;;;;14.70;99.90;;;;;;5019881;28;19974;-88
2023/11/09 12:00:08;;;;;;;;;;;14.90;99.90;;;;;;5020723;28;20422;-87
2023/11/09 12:02:37;;;;;;;;;;;15.10;99.90;;;;;;5029161;28;20004;-73
2023/11/09 12:05:02;;;;;;;;;;;14.90;99.90;;;;;;5031768;28;19939;-75
2023/11/09 12:07:29;;;;;;;;;;;14.80;99.90;;;;;;5029700;28;19910;-74
2023/11/09 12:09:55;;;;;;;;;;;15.00;99.90;;;;;;5026169;28;20368;-85
2023/11/09 12:12:21;;;;;;;;;;;15.10;99.90;;;;;;5030219;28;20891;-86
2023/11/09 12:14:49;;;;;;;;;;;15.10;99.90;;;;;;5032361;28;19909;-82
2023/11/09 12:17:14;;;;;;;;;;;15.00;99.90;;;;;;5035197;28;19920;-74
2023/11/09 12:19:43;;;;;;;;;;;14.80;99.90;;;;;;5028429;28;19917;-74
2023/11/09 12:22:10;;;;;;;;;;;14.80;99.90;;;;;;5017905;28;19961;-87
2023/11/09 12:24:36;;;;;;;;;;;14.80;99.90;;;;;;5013832;28;19909;-88
2023/11/09 12:27:05;;;;;;;;;;;14.90;99.90;;;;;;5022136;28;19917;-88
2023/11/09 12:29:31;;;;;;;;;;;15.00;99.90;;;;;;5025478;28;20384;-86
2023/11/09 12:31:57;;;;;;;;;;;15.40;99.90;;;;;;5018097;28;20289;-74
2023/11/09 12:34:22;;;;;;;;;;;15.80;99.90;;;;;;5034429;28;19909;-73
2023/11/09 12:36:51;;;;;;;;;;;15.80;99.90;;;;;;5012062;28;20351;-85
2023/11/09 12:39:28;;;;;;;;;;;16.30;99.90;;;;;;5034718;28;19963;-87
2023/11/09 12:41:55;;;;;;;;;;;17.00;99.90;;;;;;5013626;28;21617;-73
2023/11/09 12:44:25;;;;;;;;;;;17.80;99.90;;;;;;5030362;28;20284;-84
2023/11/09 12:46:57;;;;;;;;;;;17.60;99.90;;;;;;5034467;28;19917;-73
2023/11/09 12:49:27;;;;;;;;;;;17.00;99.90;;;;;;5034393;28;19913;-85
2023/11/09 12:51:53;;;;;;;;;;;16.50;99.90;;;;;;5019115;28;20334;-85
2023/11/09 12:54:21;;;;;;;;;;;16.10;99.90;;;;;;5028868;28;19951;-74
2023/11/09 12:56:49;;;;;;;;;;;14.80;99.90;;;;;;5048814;28;20383;-74
2023/11/09 12:59:24;;;;;;;;;;;13.60;99.90;;;;;;5029919;28;19960;-74
2023/11/09 13:01:56;;;;;;;;;;;13.40;99.90;;;;;;5024148;28;20336;-82
2023/11/09 13:04:22;;;;;;;;;;;13.20;99.90;;;;;;5028450;28;20300;-79
2023/11/09 13:06:49;;;;;;;;;;;13.10;99.90;;;;;;5020169;28;19917;-73
2023/11/09 13:12:26;;;;;;;;;;;13.20;99.90;;;;;;5019183;28;19929;-73
2023/11/09 13:14:47;;;;;;;;;;;13.40;99.90;;;;;;5027288;28;20012;-80
2023/11/09 13:17:16;;;;;;;;;;;13.50;99.90;;;;;;5028010;28;19914;-81
2023/11/09 13:19:46;;;;;;;;;;;13.50;99.90;;;;;;5018207;28;20400;-72
2023/11/09 13:22:13;;;;;;;;;;;13.60;99.90;;;;;;5032374;28;20371;-71
2023/11/09 13:24:40;;;;;;;;;;;14.00;99.90;;;;;;5033687;28;19964;-78
2023/11/09 13:27:10;;;;;;;;;;;14.20;99.90;;;;;;5028546;28;20456;-73
2023/11/09 13:29:37;;;;;;;;;;;14.10;99.90;;;;;;5013998;28;19909;-72
2023/11/09 13:32:05;;;;;;;;;;;14.30;99.90;;;;;;5023235;28;19935;-72
2023/11/09 13:34:38;;;;;;;;;;;14.60;99.90;;;;;;5019768;28;20411;-72
2023/11/09 13:37:04;;;;;;;;;;;14.70;99.90;;;;;;5027637;28;20401;-72
2023/11/09 13:42:20;;;;;;;;;;;14.60;99.90;;;;;;5015274;28;19956;-78
2023/11/09 13:44:48;;;;;;;;;;;14.70;99.90;;;;;;5018460;28;20327;-71
2023/11/09 13:47:19;;;;;;;;;;;14.80;99.90;;;;;;5014478;28;19914;-72
2023/11/09 13:49:45;;;;;;;;;;;14.80;99.90;;;;;;5018447;28;19917;-71
2023/11/09 13:52:24;;;;;;;;;;;15.10;99.90;;;;;;5014197;28;19925;-72
2023/11/09 13:54:59;;;;;;;;;;;15.40;99.90;;;;;;5017401;28;19960;-75
2023/11/09 13:57:27;;;;;;;;;;;15.70;99.90;;;;;;5012548;28;19913;-76
2023/11/09 13:59:57;;;;;;;;;;;15.50;99.90;;;;;;5013330;28;19989;-77
2023/11/09 14:02:27;;;;;;;;;;;15.70;99.90;;;;;;5022653;28;19921;-75
2023/11/09 14:05:04;;;;;;;;;;;15.60;99.90;;;;;;5043092;28;20330;-76
2023/11/09 14:07:33;;;;;;;;;;;15.60;99.90;;;;;;5017000;28;20303;-75
2023/11/09 14:09:59;;;;;;;;;;;15.70;99.90;;;;;;5020766;28;20092;-75
2023/11/09 14:12:38;;;;;;;;;;;15.50;99.90;;;;;;5027199;28;19917;-71
2023/11/09 14:15:16;;;;;;;;;;;15.20;99.90;;;;;;5031493;28;19956;-70
2023/11/09 14:17:44;;;;;;;;;;;14.90;99.90;;;;;;5011753;28;19914;-70
2023/11/09 14:20:20;;;;;;;;;;;14.80;99.90;;;;;;5021218;28;19917;-75
2023/11/09 14:22:45;;;;;;;;;;;14.80;99.90;;;;;;5025225;28;20379;-71
2023/11/09 14:25:17;;;;;;;;;;;14.60;99.90;;;;;;5028228;28;19961;-70
2023/11/09 14:27:42;;;;;;;;;;;14.50;99.90;;;;;;5012522;28;19921;-70
2023/11/09 14:30:08;;;;;;;;;;;14.50;99.90;;;;;;5012511;28;19922;-70
2023/11/09 14:32:36;;;;;;;;;;;14.40;99.90;;;;;;5017557;28;20008;-75
2023/11/09 14:35:01;;;;;;;;;;;14.30;99.90;;;;;;5017333;28;20036;-75